Time;durP1;ratioP1;P1;durP2;ratioP2;P2;SDS_P1;SDS_P2;PMS_P1;PMS_P2;Temp;Humidity;BMP_temperature;BMP_pressure;BME280_temperature;BME280_humidity;BME280_pressure;Samples;Min_cycle;Max_cycle;Signal;HPM_P1;HPM_P2
2022/02/14 00:02:17;;;;;;;;;4.00;3.00;;;;;12.44;65.81;99864.75;5055124;27;45374;-73
2022/02/14 00:04:43;;;;;;;;;9.00;4.00;;;;;12.41;65.05;99864.94;5052406;28;45541;-72
2022/02/14 00:07:08;;;;;;;;;5.00;3.75;;;;;12.42;65.70;99861.34;5052504;28;45803;-72
2022/02/14 00:09:34;;;;;;;;;4.25;4.25;;;;;12.41;65.58;99854.41;5053007;28;45269;-73
2022/02/14 00:12:00;;;;;;;;;4.50;4.00;;;;;12.38;65.36;99851.97;5052527;28;45706;-72
2022/02/14 00:14:27;;;;;;;;;2.75;2.75;;;;;12.33;65.83;99854.91;5053920;27;46999;-72
2022/02/14 00:16:53;;;;;;;;;8.50;4.00;;;;;12.27;66.46;99848.25;5054558;28;45442;-72
2022/02/14 00:19:19;;;;;;;;;5.75;4.50;;;;;12.27;66.41;99850.03;5043236;28;45540;-72
2022/02/14 00:21:44;;;;;;;;;5.75;4.75;;;;;12.24;66.06;99845.78;5046950;28;45500;-72
2022/02/14 00:24:10;;;;;;;;;4.50;3.00;;;;;12.22;66.46;99834.50;5052091;28;46119;-72
2022/02/14 00:26:37;;;;;;;;;6.25;4.00;;;;;12.19;66.62;99842.59;5051867;28;45565;-72
2022/02/14 00:29:03;;;;;;;;;5.00;3.00;;;;;12.16;66.37;99839.31;5054911;28;45491;-72
2022/02/14 00:31:28;;;;;;;;;3.50;3.50;;;;;12.14;67.10;99835.94;5051077;28;45678;-72
2022/02/14 00:33:54;;;;;;;;;5.75;3.75;;;;;12.13;66.91;99834.25;5052830;28;46108;-72
2022/02/14 00:36:19;;;;;;;;;4.00;4.00;;;;;12.13;66.85;99835.09;5051102;28;45968;-72
2022/02/14 00:38:44;;;;;;;;;2.00;2.00;;;;;12.11;67.03;99825.59;5052655;28;45265;-72
2022/02/14 00:41:10;;;;;;;;;4.00;4.00;;;;;12.12;66.76;99827.31;5053292;28;45521;-72
2022/02/14 00:43:35;;;;;;;;;4.75;3.50;;;;;12.10;67.14;99823.91;5053861;28;46307;-72
2022/02/14 00:46:01;;;;;;;;;3.75;3.75;;;;;12.08;67.08;99813.47;5054622;28;45422;-72
2022/02/14 00:48:26;;;;;;;;;4.75;3.75;;;;;12.07;66.76;99813.59;5052497;28;45806;-73
2022/02/14 00:50:51;;;;;;;;;3.50;3.50;;;;;12.08;67.06;99818.75;5056820;28;45456;-73
2022/02/14 00:53:18;;;;;;;;;4.25;4.00;;;;;12.09;66.89;99809.88;5053470;27;45376;-72
2022/02/14 00:55:43;;;;;;;;;3.25;3.25;;;;;12.09;66.99;99817.78;5060472;28;45421;-72
2022/02/14 00:58:09;;;;;;;;;2.75;2.50;;;;;12.07;66.91;99798.63;5052792;27;45443;-72
2022/02/14 01:00:34;;;;;;;;;3.75;3.75;;;;;12.07;66.83;99803.88;5061080;28;45415;-72
2022/02/14 01:03:00;;;;;;;;;6.00;2.50;;;;;12.07;66.79;99800.41;5059876;27;46530;-72
2022/02/14 01:05:25;;;;;;;;;4.75;3.00;;;;;12.07;67.10;99792.50;5051014;28;45480;-72
2022/02/14 01:07:51;;;;;;;;;4.50;3.50;;;;;12.06;66.76;99791.66;5055937;28;45538;-72
2022/02/14 01:10:16;;;;;;;;;3.00;3.00;;;;;12.09;67.02;99786.19;5052888;27;45427;-73
2022/02/14 01:12:42;;;;;;;;;3.25;3.25;;;;;12.11;67.00;99797.50;5054031;28;46124;-72
2022/02/14 01:15:08;;;;;;;;;5.50;4.00;;;;;12.12;66.57;99790.44;5059197;28;45570;-72
2022/02/14 01:17:35;;;;;;;;;4.00;4.00;;;;;12.13;66.85;99792.13;5056639;28;45526;-72
2022/02/14 01:20:03;;;;;;;;;3.00;3.00;;;;;12.15;66.57;99792.84;5058763;28;45313;-72
2022/02/14 01:22:28;;;;;;;;;5.25;3.75;;;;;12.16;66.43;99787.50;5062561;28;46204;-72
2022/02/14 01:24:54;;;;;;;;;7.25;4.75;;;;;12.20;66.48;99790.75;5060735;27;45506;-72
2022/02/14 01:27:19;;;;;;;;;3.25;2.00;;;;;12.23;66.75;99775.63;5058116;28;45332;-72
2022/02/14 01:29:44;;;;;;;;;6.50;4.00;;;;;12.27;66.93;99784.19;5057650;28;45448;-72
2022/02/14 01:32:10;;;;;;;;;6.50;4.00;;;;;12.30;66.51;99770.78;5062720;28;45499;-72
2022/02/14 01:34:35;;;;;;;;;4.50;4.00;;;;;12.32;66.63;99776.81;5056876;28;45478;-72
2022/02/14 01:37:01;;;;;;;;;2.00;2.00;;;;;12.36;66.31;99777.44;5055073;28;45651;-72
2022/02/14 01:39:28;;;;;;;;;3.25;3.25;;;;;12.40;66.72;99776.28;5054816;28;45237;-72
2022/02/14 01:41:55;;;;;;;;;3.25;3.00;;;;;12.42;66.52;99769.13;5059636;28;46928;-72
2022/02/14 01:44:39;;;;;;;;;8.25;4.00;;;;;12.44;66.58;99760.19;5055201;28;45341;-72
2022/02/14 01:47:14;;;;;;;;;7.75;3.75;;;;;12.47;66.41;99772.31;5055718;28;45664;-72
2022/02/14 01:49:41;;;;;;;;;4.75;3.00;;;;;12.48;66.41;99766.94;5057480;28;45554;-72
2022/02/14 01:52:08;;;;;;;;;6.50;3.75;;;;;12.50;66.69;99754.50;5058679;28;46611;-72
2022/02/14 01:54:42;;;;;;;;;5.00;4.75;;;;;12.54;66.35;99774.44;5061747;27;49213;-72
2022/02/14 01:57:09;;;;;;;;;5.25;3.50;;;;;12.58;66.30;99759.28;5060362;28;45547;-73
2022/02/14 01:59:35;;;;;;;;;4.50;3.00;;;;;12.58;66.29;99756.66;5054960;28;45790;-72
2022/02/14 02:02:02;;;;;;;;;3.00;3.00;;;;;12.61;66.19;99755.59;5064327;28;45509;-73
2022/02/14 02:04:28;;;;;;;;;3.25;3.25;;;;;12.63;66.32;99753.69;5054918;28;46008;-73
2022/02/14 02:06:54;;;;;;;;;3.00;3.00;;;;;12.64;66.30;99750.13;5054729;28;45301;-73
2022/02/14 02:09:19;;;;;;;;;5.50;4.75;;;;;12.64;66.30;99752.75;5055221;28;45517;-72
2022/02/14 02:14:28;;;;;;;;;6.50;5.00;;;;;12.66;66.09;99730.59;5055483;28;45693;-72
2022/02/14 02:16:54;;;;;;;;;4.00;3.50;;;;;12.69;66.42;99733.03;5055352;27;45650;-72
2022/02/14 02:19:20;;;;;;;;;6.50;4.25;;;;;12.71;66.40;99733.78;5054980;28;45392;-72
2022/02/14 02:21:46;;;;;;;;;4.00;4.00;;;;;12.71;66.20;99731.13;5054056;28;45514;-72
2022/02/14 02:24:17;;;;;;;;;5.25;4.00;;;;;12.74;66.45;99727.47;5057754;28;45729;-72
2022/02/14 02:26:47;;;;;;;;;7.00;4.00;;;;;12.73;66.62;99742.41;5053517;28;45384;-72
2022/02/14 02:29:16;;;;;;;;;4.50;2.75;;;;;12.75;66.78;99744.97;5060777;28;45375;-72
2022/02/14 02:31:42;;;;;;;;;4.00;3.25;;;;;12.77;66.85;99743.06;5056772;28;46281;-72
2022/02/14 02:34:08;;;;;;;;;3.75;3.00;;;;;12.80;66.83;99730.53;5053300;28;46893;-73
2022/02/14 02:36:48;;;;;;;;;2.50;2.50;;;;;12.83;67.18;99731.25;5060936;28;45454;-72
2022/02/14 02:39:14;;;;;;;;;3.00;3.00;;;;;12.86;67.20;99731.06;5062126;27;45395;-73
2022/02/14 02:41:39;;;;;;;;;3.75;3.00;;;;;12.88;67.39;99732.63;5052425;28;45356;-72
2022/02/14 02:44:04;;;;;;;;;5.00;5.00;;;;;12.89;67.86;99720.28;5059589;28;45458;-72
2022/02/14 02:46:30;;;;;;;;;5.25;3.00;;;;;12.93;67.47;99716.47;5053525;28;45709;-72
2022/02/14 02:48:55;;;;;;;;;3.75;3.25;;;;;12.94;67.66;99737.47;5054216;28;45490;-73
2022/02/14 02:51:20;;;;;;;;;6.75;4.75;;;;;12.94;67.68;99726.91;5052676;28;57652;-72
2022/02/14 02:53:46;;;;;;;;;2.00;2.00;;;;;12.97;67.72;99739.06;5057538;28;45432;-72
2022/02/14 02:56:11;;;;;;;;;1.00;1.00;;;;;12.96;67.52;99717.13;5054526;28;45538;-73
2022/02/14 02:58:36;;;;;;;;;5.00;5.00;;;;;12.96;68.36;99706.56;5060584;28;49516;-72
2022/02/14 03:01:02;;;;;;;;;4.00;4.00;;;;;12.97;67.46;99710.06;5057093;28;45368;-73
2022/02/14 03:03:28;;;;;;;;;5.50;3.00;;;;;12.98;67.79;99717.84;5054855;28;45305;-72
2022/02/14 03:05:53;;;;;;;;;3.50;3.50;;;;;12.99;67.90;99714.25;5051712;28;45411;-72
2022/02/14 03:08:18;;;;;;;;;3.50;2.25;;;;;13.00;67.96;99699.31;5059869;28;49995;-72
2022/02/14 03:10:44;;;;;;;;;3.50;1.75;;;;;13.00;67.70;99707.22;5054882;28;46231;-72
2022/02/14 03:13:09;;;;;;;;;6.00;3.50;;;;;12.98;68.46;99714.38;5055373;28;45785;-72
2022/02/14 03:15:35;;;;;;;;;4.00;2.50;;;;;12.99;70.36;99713.41;5056649;28;45412;-72
2022/02/14 03:18:00;;;;;;;;;2.00;2.00;;;;;12.97;69.04;99704.78;5053046;27;45396;-72
2022/02/14 03:20:25;;;;;;;;;3.50;3.50;;;;;12.97;69.02;99710.06;5054190;28;47275;-72
2022/02/14 03:22:51;;;;;;;;;2.00;2.00;;;;;12.97;69.54;99716.16;5058862;28;45547;-72
2022/02/14 03:25:16;;;;;;;;;3.75;2.00;;;;;12.94;71.44;99718.16;5054830;27;45454;-73
2022/02/14 03:27:41;;;;;;;;;4.00;4.00;;;;;12.91;70.09;99721.88;5055913;28;45353;-73
2022/02/14 03:30:07;;;;;;;;;5.50;3.50;;;;;12.88;69.98;99706.25;5062685;28;46148;-72
2022/02/14 03:32:32;;;;;;;;;5.50;3.50;;;;;12.86;69.97;99716.06;5053129;28;45511;-73
2022/02/14 03:34:58;;;;;;;;;4.00;2.75;;;;;12.85;71.29;99716.19;5070370;28;45364;-72
2022/02/14 03:37:24;;;;;;;;;3.50;2.00;;;;;12.76;71.08;99718.47;5054102;28;45376;-72
2022/02/14 03:39:49;;;;;;;;;6.25;2.00;;;;;12.73;71.32;99723.94;5055060;27;46156;-72
2022/02/14 03:42:14;;;;;;;;;4.75;2.75;;;;;12.67;71.89;99713.84;5057881;28;45473;-72
2022/02/14 03:44:40;;;;;;;;;2.25;2.25;;;;;12.68;71.14;99731.31;5057353;28;45368;-72
2022/02/14 03:47:05;;;;;;;;;3.00;3.00;;;;;12.66;71.77;99714.78;5054322;28;45438;-72
2022/02/14 03:49:31;;;;;;;;;1.50;1.50;;;;;12.58;72.73;99726.78;5053131;28;45991;-72
2022/02/14 03:51:56;;;;;;;;;0.00;0.00;;;;;12.53;73.09;99748.19;5049462;28;45602;-72
2022/02/14 03:54:21;;;;;;;;;3.00;3.00;;;;;12.49;74.02;99738.81;5052068;28;47506;-72
2022/02/14 03:56:47;;;;;;;;;6.00;3.00;;;;;12.41;74.27;99749.84;5054795;28;45809;-72
2022/02/14 03:59:14;;;;;;;;;3.25;3.25;;;;;12.40;73.99;99760.50;5053382;27;46205;-72
2022/02/14 04:01:40;;;;;;;;;5.00;3.00;;;;;12.36;74.05;99759.84;5055273;28;45686;-72
2022/02/14 04:04:06;;;;;;;;;3.25;3.00;;;;;12.31;73.87;99763.72;5052504;28;45637;-72
2022/02/14 04:06:31;;;;;;;;;7.75;4.00;;;;;12.34;73.94;99766.16;5052618;28;45480;-72
2022/02/14 04:08:56;;;;;;;;;4.00;4.00;;;;;12.34;73.76;99760.91;5056105;28;47083;-72
2022/02/14 04:11:21;;;;;;;;;3.00;3.00;;;;;12.32;73.78;99771.53;5052494;28;45794;-72
2022/02/14 04:13:47;;;;;;;;;3.00;2.75;;;;;12.33;73.90;99769.75;5054902;28;45569;-73
2022/02/14 04:16:12;;;;;;;;;2.00;2.00;;;;;12.31;73.52;99784.78;5051919;28;45399;-72
2022/02/14 04:18:37;;;;;;;;;8.50;2.75;;;;;12.28;74.00;99834.13;5053649;28;45428;-72
2022/02/14 04:21:03;;;;;;;;;0.50;0.00;;;;;12.24;73.12;99842.31;5051887;28;45337;-72
2022/02/14 04:23:28;;;;;;;;;0.00;0.00;;;;;12.09;72.16;99830.97;5067502;28;45613;-72
2022/02/14 04:25:53;;;;;;;;;0.00;0.00;;;;;11.95;71.86;99838.88;5055487;28;45524;-73
2022/02/14 04:28:19;;;;;;;;;0.00;0.00;;;;;11.84;71.51;99839.56;5053180;28;50022;-73
2022/02/14 04:30:45;;;;;;;;;0.00;0.00;;;;;11.76;71.11;99850.53;5053188;28;45447;-72
2022/02/14 04:33:10;;;;;;;;;1.75;0.00;;;;;11.73;70.78;99855.13;5052740;28;45526;-73
2022/02/14 04:35:36;;;;;;;;;0.00;0.00;;;;;11.66;70.57;99845.94;5063541;28;45371;-72
2022/02/14 04:38:01;;;;;;;;;0.00;0.00;;;;;11.63;70.96;99857.50;5053745;28;46176;-72
2022/02/14 04:40:32;;;;;;;;;0.00;0.00;;;;;11.62;70.88;99863.69;5051954;28;45516;-72
2022/02/14 04:42:58;;;;;;;;;0.00;0.00;;;;;11.61;70.45;99861.16;5052755;28;45459;-72
2022/02/14 04:45:25;;;;;;;;;0.00;0.00;;;;;11.59;70.35;99866.53;5052539;28;45309;-73
2022/02/14 04:47:51;;;;;;;;;0.00;0.00;;;;;11.55;70.24;99883.44;5064513;28;45472;-73
2022/02/14 04:50:16;;;;;;;;;0.00;0.00;;;;;11.47;70.39;99881.25;5055342;27;45372;-72
2022/02/14 04:52:42;;;;;;;;;0.00;0.00;;;;;11.53;70.52;99898.47;5053936;28;45494;-73
2022/02/14 04:55:08;;;;;;;;;0.75;0.00;;;;;11.54;70.36;99894.91;5063736;28;45518;-73
2022/02/14 04:57:34;;;;;;;;;0.00;0.00;;;;;11.54;70.00;99899.31;5066273;27;46177;-72
2022/02/14 05:00:00;;;;;;;;;0.00;0.00;;;;;11.53;69.99;99906.34;5058184;28;45492;-73
2022/02/14 05:02:25;;;;;;;;;1.00;0.00;;;;;11.48;69.96;99917.19;5055456;28;45574;-73
2022/02/14 05:04:50;;;;;;;;;0.00;0.00;;;;;11.49;69.76;99912.75;5056353;28;45950;-73
2022/02/14 05:07:15;;;;;;;;;0.00;0.00;;;;;11.45;69.42;99933.13;5054671;28;46232;-72
2022/02/14 05:09:41;;;;;;;;;0.00;0.00;;;;;11.36;69.28;99938.09;5061318;27;45809;-72
2022/02/14 05:12:06;;;;;;;;;0.00;0.00;;;;;11.26;69.64;99932.50;5054946;28;47391;-72
2022/02/14 05:14:32;;;;;;;;;0.00;0.00;;;;;11.17;69.55;99933.91;5067493;28;45340;-72
2022/02/14 05:16:57;;;;;;;;;0.00;0.00;;;;;11.13;69.40;99942.91;5074353;28;45952;-72
2022/02/14 05:19:22;;;;;;;;;0.00;0.00;;;;;11.08;69.82;99944.97;5059799;27;45458;-72
2022/02/14 05:21:48;;;;;;;;;0.00;0.00;;;;;11.06;69.95;99954.69;5055553;28;45603;-72
2022/02/14 05:24:13;;;;;;;;;0.00;0.00;;;;;11.05;69.83;99960.06;5055018;28;45514;-72
2022/02/14 05:26:38;;;;;;;;;0.00;0.00;;;;;11.02;69.93;99968.97;5055906;28;45403;-72
2022/02/14 05:29:04;;;;;;;;;0.00;0.00;;;;;11.01;70.37;99969.88;5056239;28;45435;-72
2022/02/14 05:31:29;;;;;;;;;0.00;0.00;;;;;10.97;70.38;99976.28;5062686;28;45432;-72
2022/02/14 05:33:55;;;;;;;;;0.00;0.00;;;;;10.91;70.39;99985.38;5060250;27;45403;-72
2022/02/14 05:36:20;;;;;;;;;0.25;0.00;;;;;10.84;70.50;99986.63;5054859;28;45449;-72
2022/02/14 05:38:46;;;;;;;;;0.00;0.00;;;;;10.79;70.61;99995.69;5056494;28;45528;-72
2022/02/14 05:41:12;;;;;;;;;0.00;0.00;;;;;10.75;71.14;100002.06;5053864;28;45555;-72
2022/02/14 05:43:37;;;;;;;;;0.00;0.00;;;;;10.75;71.17;100013.41;5055788;28;46398;-72
2022/02/14 05:46:03;;;;;;;;;0.00;0.00;;;;;10.74;71.06;100011.72;5058255;28;46211;-72
2022/02/14 05:48:28;;;;;;;;;0.00;0.00;;;;;10.74;71.18;100010.88;5067284;27;45283;-72
2022/02/14 05:50:53;;;;;;;;;0.00;0.00;;;;;10.69;71.37;100011.97;5055061;28;45426;-72
2022/02/14 05:53:19;;;;;;;;;0.00;0.00;;;;;10.65;71.38;100026.22;5057156;28;45310;-72
2022/02/14 05:55:44;;;;;;;;;0.00;0.00;;;;;10.63;71.58;100032.50;5056493;28;45803;-72
2022/02/14 05:58:09;;;;;;;;;0.00;0.00;;;;;10.65;71.65;100035.91;5059129;28;45367;-72
2022/02/14 06:00:35;;;;;;;;;0.00;0.00;;;;;10.66;71.59;100040.22;5059046;27;45439;-72
2022/02/14 06:03:00;;;;;;;;;0.00;0.00;;;;;10.66;71.43;100048.94;5054824;28;45320;-72
2022/02/14 06:05:25;;;;;;;;;1.00;0.00;;;;;10.63;71.68;100051.72;5054230;28;45572;-72
2022/02/14 06:07:51;;;;;;;;;0.00;0.00;;;;;10.62;71.67;100042.16;5062735;28;45297;-72
2022/02/14 06:10:16;;;;;;;;;0.00;0.00;;;;;10.61;71.52;100043.09;5056562;27;45441;-72
2022/02/14 06:12:41;;;;;;;;;0.00;0.00;;;;;10.56;71.61;100047.75;5051626;28;45687;-72
2022/02/14 06:15:07;;;;;;;;;1.00;0.00;;;;;10.50;71.49;100066.47;5052336;28;45489;-73
2022/02/14 06:17:33;;;;;;;;;1.00;0.00;;;;;10.42;71.81;100071.25;5058075;28;45484;-72
2022/02/14 06:19:59;;;;;;;;;2.50;0.00;;;;;10.37;71.68;100083.78;5055544;28;45649;-72
2022/02/14 06:22:25;;;;;;;;;1.00;0.00;;;;;10.31;71.64;100079.72;5056342;28;45606;-72
2022/02/14 06:24:50;;;;;;;;;0.25;0.25;;;;;10.27;71.89;100093.91;5058958;27;46192;-72
2022/02/14 06:27:16;;;;;;;;;0.75;0.00;;;;;10.19;71.91;100094.31;5052727;28;45406;-72
2022/02/14 06:29:41;;;;;;;;;0.00;0.00;;;;;10.14;71.94;100103.34;5054236;28;45582;-72
2022/02/14 06:32:07;;;;;;;;;0.75;0.00;;;;;10.09;72.07;100105.34;5058082;28;45564;-72
2022/02/14 06:34:32;;;;;;;;;2.00;0.00;;;;;10.01;72.40;100103.09;5053457;28;46976;-72
2022/02/14 06:36:57;;;;;;;;;1.00;1.00;;;;;9.95;72.21;100113.91;5057304;28;45640;-72
2022/02/14 06:39:23;;;;;;;;;1.75;0.00;;;;;9.90;72.70;100115.91;5062116;28;47964;-72
2022/02/14 06:41:49;;;;;;;;;0.00;0.00;;;;;9.84;73.14;100106.59;5053539;28;45515;-72
2022/02/14 06:44:14;;;;;;;;;0.00;0.00;;;;;9.79;72.55;100111.22;5055184;28;47133;-72
2022/02/14 06:46:40;;;;;;;;;1.75;0.00;;;;;9.74;73.19;100104.50;5070741;28;45425;-72
2022/02/14 06:49:06;;;;;;;;;0.75;0.00;;;;;9.70;72.91;100113.44;5054205;28;45484;-72
2022/02/14 06:51:35;;;;;;;;;1.00;0.00;;;;;9.65;73.30;100117.13;5054109;28;45661;-72
2022/02/14 06:54:00;;;;;;;;;0.00;0.00;;;;;9.62;73.50;100106.81;5057780;28;46896;-72
2022/02/14 06:56:25;;;;;;;;;1.00;0.00;;;;;9.60;73.48;100108.63;5048303;28;45446;-72
2022/02/14 06:58:51;;;;;;;;;0.00;0.00;;;;;9.57;73.63;100115.81;5055417;28;48879;-72
2022/02/14 07:01:17;;;;;;;;;0.00;0.00;;;;;9.53;73.67;100117.75;5054865;28;45407;-72
2022/02/14 07:03:42;;;;;;;;;1.00;1.00;;;;;9.49;74.10;100133.69;5054597;28;51810;-72
2022/02/14 07:06:08;;;;;;;;;2.00;0.25;;;;;9.46;73.81;100115.50;5053883;28;45506;-72
2022/02/14 07:08:33;;;;;;;;;0.50;0.00;;;;;9.46;73.73;100128.59;5049099;28;45389;-72
2022/02/14 07:11:00;;;;;;;;;3.00;1.00;;;;;9.43;74.06;100126.97;5055249;28;45508;-72
2022/02/14 07:13:25;;;;;;;;;2.00;1.00;;;;;9.45;74.04;100140.88;5062885;28;45965;-71
2022/02/14 07:15:51;;;;;;;;;1.00;1.00;;;;;9.45;74.42;100151.38;5058270;27;45313;-71
2022/02/14 07:18:16;;;;;;;;;4.25;0.00;;;;;9.46;74.45;100160.09;5059455;28;45801;-72
2022/02/14 07:20:42;;;;;;;;;1.50;1.00;;;;;9.48;74.26;100153.81;5053584;28;45507;-71
2022/02/14 07:23:08;;;;;;;;;0.00;0.00;;;;;9.51;74.39;100153.69;5054995;28;45758;-71
2022/02/14 07:25:33;;;;;;;;;1.00;0.50;;;;;9.56;74.17;100163.97;5054773;28;45389;-71
2022/02/14 07:27:59;;;;;;;;;0.25;0.25;;;;;9.63;74.46;100166.22;5051345;28;45512;-72
2022/02/14 07:30:24;;;;;;;;;0.25;0.25;;;;;9.70;74.41;100165.91;5061136;28;45408;-73
2022/02/14 07:32:50;;;;;;;;;3.00;1.00;;;;;9.79;74.09;100176.81;5062172;28;46363;-73
2022/02/14 07:35:16;;;;;;;;;0.00;0.00;;;;;9.90;73.66;100178.91;5055784;28;45570;-74
2022/02/14 07:37:43;;;;;;;;;2.50;2.00;;;;;10.05;73.34;100182.56;5055625;28;46905;-73
2022/02/14 07:40:09;;;;;;;;;3.00;1.50;;;;;10.17;73.13;100185.41;5054056;28;45384;-73
2022/02/14 07:42:35;;;;;;;;;0.00;0.00;;;;;10.45;73.14;100189.31;5051739;28;46542;-73
2022/02/14 07:45:00;;;;;;;;;3.00;1.00;;;;;11.03;72.75;100186.28;5053053;28;45579;-72
2022/02/14 07:47:26;;;;;;;;;1.00;1.00;;;;;11.48;71.28;100175.03;5051761;28;45662;-73
2022/02/14 07:49:52;;;;;;;;;0.50;0.50;;;;;11.91;69.96;100177.06;5054471;28;45505;-73
2022/02/14 07:52:17;;;;;;;;;0.00;0.00;;;;;12.18;69.44;100178.09;5053140;28;46317;-73
2022/02/14 07:54:43;;;;;;;;;3.50;1.00;;;;;12.46;68.53;100185.19;5052930;28;45444;-73
2022/02/14 07:57:08;;;;;;;;;1.00;1.00;;;;;12.83;67.00;100185.63;5052671;28;45472;-73
2022/02/14 07:59:34;;;;;;;;;0.75;0.25;;;;;12.97;66.45;100187.44;5052313;28;45455;-73
2022/02/14 08:01:59;;;;;;;;;0.25;0.25;;;;;13.25;66.26;100184.78;5058060;28;46078;-73
2022/02/14 08:04:24;;;;;;;;;1.75;1.75;;;;;13.97;65.74;100195.16;5057247;28;49227;-73
2022/02/14 08:06:50;;;;;;;;;3.50;1.00;;;;;15.01;64.12;100204.00;5054789;28;46469;-73
2022/02/14 08:09:17;;;;;;;;;0.00;0.00;;;;;16.12;62.85;100195.94;5052656;28;45404;-73
2022/02/14 08:11:42;;;;;;;;;4.00;2.25;;;;;17.34;60.61;100191.00;5047529;28;46161;-73
2022/02/14 08:14:08;;;;;;;;;3.00;0.00;;;;;18.41;58.21;100199.97;5054557;28;45276;-73
2022/02/14 08:16:34;;;;;;;;;0.75;0.75;;;;;19.26;56.40;100202.44;5054049;28;45400;-72
2022/02/14 08:18:59;;;;;;;;;1.50;1.00;;;;;18.98;53.19;100209.31;5055707;28;45629;-73
2022/02/14 08:21:26;;;;;;;;;4.00;1.00;;;;;18.61;52.98;100207.13;5051923;28;46342;-73
2022/02/14 08:23:51;;;;;;;;;0.75;0.75;;;;;18.33;53.14;100223.75;5045567;28;46870;-73
2022/02/14 08:26:17;;;;;;;;;1.00;1.00;;;;;18.12;52.88;100223.69;5051601;28;45567;-73
2022/02/14 08:28:42;;;;;;;;;1.00;1.00;;;;;18.19;53.27;100225.72;5067386;28;45298;-72
2022/02/14 08:31:07;;;;;;;;;2.75;1.00;;;;;18.89;53.16;100234.06;5053383;28;46152;-72
2022/02/14 08:33:33;;;;;;;;;1.00;1.00;;;;;19.98;51.99;100236.03;5054788;28;50065;-72
2022/02/14 08:35:58;;;;;;;;;1.25;1.25;;;;;21.33;50.77;100233.22;5055671;28;46302;-73
2022/02/14 08:38:23;;;;;;;;;1.25;1.25;;;;;22.69;49.86;100232.28;5055256;28;45535;-73
2022/02/14 08:40:49;;;;;;;;;2.00;0.50;;;;;23.88;46.84;100243.19;5060213;28;46076;-73
2022/02/14 08:43:15;;;;;;;;;2.00;1.00;;;;;24.77;44.86;100242.44;5057970;28;45431;-74
2022/02/14 08:45:40;;;;;;;;;3.50;0.75;;;;;25.71;44.07;100240.84;5058990;28;45992;-73
2022/02/14 08:48:05;;;;;;;;;0.50;0.50;;;;;26.37;42.58;100236.75;5058948;27;45477;-73
2022/02/14 08:50:31;;;;;;;;;2.00;1.00;;;;;26.82;41.01;100242.28;5055287;28;46131;-73
2022/02/14 08:53:00;;;;;;;;;2.00;0.00;;;;;26.94;39.28;100243.50;5056427;28;45458;-73
2022/02/14 08:55:29;;;;;;;;;2.00;2.00;;;;;27.15;39.84;100240.13;5056198;28;45561;-74
2022/02/14 08:57:54;;;;;;;;;1.00;1.00;;;;;27.70;39.97;100244.16;5055917;28;45573;-74
2022/02/14 09:00:20;;;;;;;;;0.25;0.25;;;;;28.55;39.58;100246.97;5054949;28;46925;-74
2022/02/14 09:02:46;;;;;;;;;0.50;0.50;;;;;29.21;37.44;100238.53;5052937;28;46709;-74
2022/02/14 09:05:11;;;;;;;;;2.50;1.00;;;;;29.58;36.39;100244.59;5056046;28;45615;-74
2022/02/14 09:07:37;;;;;;;;;2.50;2.50;;;;;28.63;35.08;100242.47;5055305;28;45712;-73
2022/02/14 09:10:04;;;;;;;;;3.50;0.50;;;;;26.73;35.53;100247.75;5060480;28;45973;-74
2022/02/14 09:12:29;;;;;;;;;2.00;2.00;;;;;24.98;36.80;100241.91;5053318;28;45795;-73
2022/02/14 09:14:55;;;;;;;;;1.25;1.25;;;;;23.51;37.70;100243.53;5049025;28;45760;-72
2022/02/14 09:17:20;;;;;;;;;2.75;0.75;;;;;21.75;39.58;100262.16;5053021;28;45487;-73
2022/02/14 09:19:45;;;;;;;;;1.00;1.00;;;;;20.41;41.17;100267.69;5056405;28;45395;-72
2022/02/14 09:22:12;;;;;;;;;2.50;1.50;;;;;19.37;42.35;100260.97;5052304;28;46614;-72
2022/02/14 09:24:37;;;;;;;;;1.00;0.00;;;;;18.55;44.44;100270.66;5053271;28;45594;-71
2022/02/14 09:27:03;;;;;;;;;4.00;2.00;;;;;17.98;45.79;100280.66;5051065;28;45446;-72
2022/02/14 09:29:30;;;;;;;;;2.00;1.00;;;;;17.56;46.15;100275.13;5048230;28;45970;-72
2022/02/14 09:31:57;;;;;;;;;2.00;1.00;;;;;17.06;46.84;100269.31;5051500;28;45860;-71
2022/02/14 09:34:23;;;;;;;;;1.50;1.00;;;;;16.54;47.66;100277.72;5043785;28;45905;-72
2022/02/14 09:36:52;;;;;;;;;2.50;2.00;;;;;16.05;48.56;100284.00;5052039;28;47053;-72
2022/02/14 09:39:18;;;;;;;;;5.00;4.00;;;;;15.49;49.62;100281.78;5052185;28;47148;-72
2022/02/14 09:41:44;;;;;;;;;1.75;1.00;;;;;15.03;50.43;100279.66;5052750;28;45563;-72
2022/02/14 09:44:09;;;;;;;;;1.25;1.00;;;;;14.70;51.12;100281.97;5052490;28;45505;-72
2022/02/14 09:46:36;;;;;;;;;3.50;2.50;;;;;14.42;52.01;100282.94;5049813;28;45441;-72
2022/02/14 09:49:04;;;;;;;;;1.00;1.00;;;;;14.09;52.56;100293.00;5049082;28;45833;-72
2022/02/14 09:51:30;;;;;;;;;2.00;2.00;;;;;13.86;53.39;100303.31;5047024;28;45844;-73
2022/02/14 09:53:58;;;;;;;;;4.00;3.25;;;;;13.62;53.62;100308.34;5037442;28;45577;-73
2022/02/14 09:56:24;;;;;;;;;2.00;1.00;;;;;13.38;54.75;100308.06;5051705;28;45472;-72
2022/02/14 09:58:49;;;;;;;;;2.50;1.25;;;;;13.34;55.38;100309.19;5052394;28;45530;-72
2022/02/14 10:01:16;;;;;;;;;3.00;1.75;;;;;13.28;55.24;100310.44;5047830;28;45778;-72
2022/02/14 10:04:08;;;;;;;;;1.25;1.00;;;;;13.23;55.95;100309.84;5050916;28;45625;-72
2022/02/14 10:06:37;;;;;;;;;1.25;1.00;;;;;13.21;56.00;100312.59;5042031;28;45611;-73
2022/02/14 10:09:10;;;;;;;;;2.25;1.00;;;;;13.19;56.52;100311.78;5044478;28;46096;-73
2022/02/14 10:11:39;;;;;;;;;1.75;1.25;;;;;13.28;56.73;100315.72;5042575;28;45713;-72
2022/02/14 10:14:19;;;;;;;;;1.00;1.00;;;;;13.91;56.13;100306.50;5052247;28;45752;-74
2022/02/14 10:17:08;;;;;;;;;3.25;1.75;;;;;15.00;56.15;100316.09;5053093;28;45858;-74
2022/02/14 10:19:45;;;;;;;;;3.00;1.00;;;;;15.31;53.91;100312.19;5051135;28;45805;-73
2022/02/14 10:22:12;;;;;;;;;4.00;2.25;;;;;15.02;53.42;100315.03;5049771;28;45802;-72
2022/02/14 10:24:42;;;;;;;;;2.25;2.00;;;;;14.88;54.14;100308.06;5050365;28;45848;-73
2022/02/14 10:27:09;;;;;;;;;4.00;1.00;;;;;14.88;53.90;100309.84;5049798;28;45566;-73
2022/02/14 10:29:34;;;;;;;;;4.25;1.00;;;;;14.89;54.28;100316.84;5034371;28;45420;-73
2022/02/14 10:32:26;;;;;;;;;1.50;1.00;;;;;14.86;54.08;100315.22;5051546;28;46829;-74
2022/02/14 10:34:58;;;;;;;;;2.00;1.25;;;;;14.90;53.71;100334.41;5046999;28;45986;-72
2022/02/14 10:37:40;;;;;;;;;2.25;0.25;;;;;14.93;53.87;100322.75;5049952;28;45423;-73
2022/02/14 10:40:10;;;;;;;;;6.25;4.50;;;;;14.87;53.98;100324.84;5050988;28;45424;-73
2022/02/14 10:42:37;;;;;;;;;1.75;1.00;;;;;14.64;53.74;100338.78;5049167;28;45510;-73
2022/02/14 10:45:07;;;;;;;;;1.00;1.00;;;;;14.37;53.51;100354.63;5049010;28;45580;-72
2022/02/14 10:47:37;;;;;;;;;6.00;3.00;;;;;14.08;53.98;100349.41;5050485;28;45505;-72
2022/02/14 10:50:06;;;;;;;;;4.50;2.00;;;;;13.90;55.00;100341.81;5047230;28;46208;-72
2022/02/14 10:52:37;;;;;;;;;1.50;1.50;;;;;13.79;55.44;100343.31;5049851;28;45739;-73
2022/02/14 10:55:06;;;;;;;;;4.00;2.00;;;;;13.70;55.53;100338.63;5050808;28;45657;-72
2022/02/14 10:57:36;;;;;;;;;4.00;1.00;;;;;13.63;55.43;100336.47;5049479;28;45445;-73
2022/02/14 11:00:12;;;;;;;;;8.75;1.75;;;;;13.58;55.76;100326.19;5050089;28;45529;-73
2022/02/14 11:02:40;;;;;;;;;11.00;8.00;;;;;13.56;55.95;100328.03;5034603;28;45726;-75
2022/02/14 11:05:06;;;;;;;;;12.25;10.50;;;;;14.35;56.88;100314.22;5053055;28;45782;-73
2022/02/14 11:07:32;;;;;;;;;1.75;1.00;;;;;15.60;55.28;100313.63;5050484;28;45566;-73
2022/02/14 11:09:59;;;;;;;;;1.00;1.00;;;;;16.08;53.14;100320.91;5048786;28;46096;-73
2022/02/14 11:12:29;;;;;;;;;1.50;1.50;;;;;16.53;53.49;100307.84;5050008;28;45338;-73
2022/02/14 11:14:56;;;;;;;;;1.00;1.00;;;;;17.14;52.17;100301.44;5057967;28;45491;-73
2022/02/14 11:17:27;;;;;;;;;3.50;1.00;;;;;17.36;49.97;100307.72;5059568;28;45582;-74
2022/02/14 11:20:00;;;;;;;;;0.25;0.00;;;;;17.18;49.52;100302.06;5070577;28;46425;-73
2022/02/14 11:22:28;;;;;;;;;3.00;0.00;;;;;16.71;49.65;100309.19;5058544;27;45721;-74
2022/02/14 11:25:08;;;;;;;;;1.00;1.00;;;;;16.16;49.71;100305.25;5058337;28;45340;-73
2022/02/14 11:27:38;;;;;;;;;3.25;1.00;;;;;15.96;49.71;100295.25;5057262;28;45587;-72
2022/02/14 11:30:08;;;;;;;;;1.00;0.00;;;;;15.83;50.38;100293.50;5055980;28;45500;-72